Time;durP1;ratioP1;P1;durP2;ratioP2;P2;SDS_P1;SDS_P2;PMS_P1;PMS_P2;Temp;Humidity;BMP_temperature;BMP_pressure;BME280_temperature;BME280_humidity;BME280_pressure;Samples;Min_cycle;Max_cycle;Signal;HPM_P1;HPM_P2
2021/12/27 00:01:02;;;;;;;10.10;5.30;;;-4.30;99.90;;;;;;5040639;28;20044;-71
2021/12/27 00:03:27;;;;;;;11.43;5.13;;;-4.30;99.90;;;;;;5040314;28;20144;-71
2021/12/27 00:05:53;;;;;;;16.08;5.53;;;-4.30;99.90;;;;;;5039148;28;20100;-71
2021/12/27 00:08:19;;;;;;;13.00;4.80;;;-4.30;99.90;;;;;;5037265;28;20091;-71
2021/12/27 00:10:45;;;;;;;13.40;5.18;;;-4.30;99.90;;;;;;5039466;28;20035;-71
2021/12/27 00:13:11;;;;;;;13.35;5.00;;;-4.30;99.90;;;;;;5042813;28;20030;-72
2021/12/27 00:15:39;;;;;;;12.05;5.45;;;-4.30;99.90;;;;;;5038459;28;20494;-72
2021/12/27 00:18:04;;;;;;;13.10;5.18;;;-4.30;99.90;;;;;;5038937;28;20029;-72
2021/12/27 00:20:32;;;;;;;15.55;5.90;;;-4.30;99.90;;;;;;5042623;28;20040;-71
2021/12/27 00:22:58;;;;;;;11.95;5.40;;;-4.30;99.90;;;;;;5037129;28;20112;-72
2021/12/27 00:25:24;;;;;;;14.20;5.97;;;-4.30;99.90;;;;;;5038164;28;20107;-72
2021/12/27 00:27:50;;;;;;;16.50;5.95;;;-4.40;99.90;;;;;;5038998;28;20033;-71
2021/12/27 00:30:16;;;;;;;15.85;6.63;;;-4.40;99.90;;;;;;5038980;28;20026;-72
2021/12/27 00:32:43;;;;;;;15.55;6.05;;;-4.40;99.90;;;;;;5040934;28;20032;-71
2021/12/27 00:35:10;;;;;;;14.23;6.28;;;-4.40;99.90;;;;;;5037910;28;20025;-71
2021/12/27 00:37:36;;;;;;;17.90;6.13;;;-4.30;99.90;;;;;;5038016;28;20513;-71
2021/12/27 00:40:04;;;;;;;14.15;6.18;;;-4.30;99.90;;;;;;5019779;28;20187;-71
2021/12/27 00:42:29;;;;;;;13.73;6.00;;;-4.20;99.90;;;;;;5037148;28;20048;-71
2021/12/27 00:44:55;;;;;;;19.08;7.90;;;-4.10;99.90;;;;;;5036970;28;20466;-71
2021/12/27 00:47:21;;;;;;;16.02;6.32;;;-4.10;99.90;;;;;;5054681;28;20037;-71
2021/12/27 00:49:46;;;;;;;16.15;6.28;;;-4.10;99.90;;;;;;5038762;28;20079;-71
2021/12/27 00:52:13;;;;;;;15.75;6.97;;;-4.10;99.90;;;;;;5038895;28;20036;-71
2021/12/27 00:54:38;;;;;;;14.90;5.88;;;-4.10;99.90;;;;;;5037453;28;20025;-71
2021/12/27 00:57:04;;;;;;;14.77;6.63;;;-4.10;99.90;;;;;;5039710;28;20056;-71
2021/12/27 00:59:30;;;;;;;13.98;5.55;;;-4.00;99.90;;;;;;5039558;28;20030;-72
2021/12/27 01:01:56;;;;;;;17.20;6.32;;;-4.10;99.90;;;;;;5038625;28;20541;-71
2021/12/27 01:04:22;;;;;;;16.63;6.22;;;-4.00;99.90;;;;;;5040659;28;20024;-72
2021/12/27 01:06:48;;;;;;;17.90;6.70;;;-4.00;99.90;;;;;;5039719;28;20235;-71
2021/12/27 01:09:22;;;;;;;17.20;6.55;;;-4.00;99.90;;;;;;5039583;28;20033;-71
2021/12/27 01:15:08;;;;;;;20.23;6.63;;;-4.10;99.90;;;;;;4979857;28;20034;-72
2021/12/27 01:17:36;;;;;;;16.23;6.15;;;-4.00;99.90;;;;;;4996927;28;20093;-71
2021/12/27 01:20:08;;;;;;;21.00;7.03;;;-4.10;99.90;;;;;;4996059;28;20471;-72
2021/12/27 01:22:34;;;;;;;17.23;6.25;;;-4.00;99.90;;;;;;4987932;28;20045;-71
2021/12/27 01:24:59;;;;;;;15.05;5.80;;;-4.10;99.90;;;;;;4994704;28;20041;-71
2021/12/27 01:27:26;;;;;;;19.85;6.82;;;-4.10;99.90;;;;;;4978913;28;20029;-71
2021/12/27 01:29:51;;;;;;;15.68;6.68;;;-4.10;99.90;;;;;;4998378;28;20157;-71
2021/12/27 01:32:17;;;;;;;21.05;8.00;;;-4.10;99.90;;;;;;4998133;28;20213;-71
2021/12/27 01:34:43;;;;;;;19.17;8.30;;;-4.00;99.90;;;;;;4980732;28;20506;-71
2021/12/27 01:37:09;;;;;;;18.80;7.93;;;-4.00;99.90;;;;;;4996104;28;20033;-71
2021/12/27 01:39:34;;;;;;;18.45;8.00;;;-4.00;99.90;;;;;;4996662;28;20041;-71
2021/12/27 01:42:00;;;;;;;19.38;7.78;;;-3.90;99.90;;;;;;4996662;28;20038;-71
2021/12/27 01:44:26;;;;;;;19.98;8.40;;;-3.90;99.90;;;;;;4992095;28;20030;-71
2021/12/27 01:46:53;;;;;;;19.83;7.65;;;-4.00;99.90;;;;;;5038178;28;20049;-72
2021/12/27 01:49:19;;;;;;;23.55;8.65;;;-3.90;99.90;;;;;;5036190;28;20033;-71
2021/12/27 01:51:45;;;;;;;19.48;7.55;;;-4.00;99.90;;;;;;5040041;28;20025;-71
2021/12/27 01:54:11;;;;;;;18.30;6.93;;;-4.00;99.90;;;;;;5037718;28;20487;-71
2021/12/27 01:56:36;;;;;;;19.23;7.15;;;-4.00;99.90;;;;;;5035509;28;20025;-71
2021/12/27 01:59:03;;;;;;;19.10;7.85;;;-4.00;99.90;;;;;;5034409;28;20029;-71
2021/12/27 02:01:29;;;;;;;22.58;8.10;;;-4.00;99.90;;;;;;5038302;28;20065;-71
2021/12/27 02:03:57;;;;;;;19.77;8.23;;;-4.00;99.90;;;;;;5037328;28;20069;-71
2021/12/27 02:06:25;;;;;;;21.63;7.43;;;-4.00;99.90;;;;;;5037259;28;20113;-71
2021/12/27 02:08:50;;;;;;;18.40;7.72;;;-4.00;99.90;;;;;;5037863;28;20022;-71
2021/12/27 02:11:17;;;;;;;19.75;8.23;;;-4.00;99.90;;;;;;5038960;28;20048;-71
2021/12/27 02:13:45;;;;;;;20.67;7.97;;;-4.00;99.90;;;;;;5037460;28;20037;-71
2021/12/27 02:16:13;;;;;;;18.27;7.93;;;-3.90;99.90;;;;;;5035377;28;20541;-72
2021/12/27 02:18:39;;;;;;;17.52;7.80;;;-3.90;99.90;;;;;;5037539;28;20044;-71
2021/12/27 02:21:06;;;;;;;21.15;7.93;;;-3.90;99.90;;;;;;5038353;28;20040;-71
2021/12/27 02:23:33;;;;;;;19.83;7.45;;;-3.80;99.90;;;;;;5038113;28;20076;-71
2021/12/27 02:25:58;;;;;;;24.63;8.60;;;-3.80;99.90;;;;;;5018274;28;20063;-71
2021/12/27 02:28:24;;;;;;;21.73;9.02;;;-3.80;99.90;;;;;;5037222;28;20426;-71
2021/12/27 02:30:52;;;;;;;24.73;8.95;;;-3.80;99.90;;;;;;5038873;28;20041;-71
2021/12/27 02:33:18;;;;;;;25.88;9.13;;;-3.90;99.90;;;;;;5035654;28;20100;-71
2021/12/27 02:35:47;;;;;;;21.50;8.68;;;-3.90;99.90;;;;;;5037765;28;20429;-71
2021/12/27 02:38:16;;;;;;;20.42;8.48;;;-3.90;99.90;;;;;;5037584;28;20037;-71
2021/12/27 02:40:43;;;;;;;20.02;8.55;;;-3.90;99.90;;;;;;5039499;28;20114;-71
2021/12/27 02:43:12;;;;;;;22.67;9.02;;;-4.00;99.90;;;;;;5041205;28;20372;-72
2021/12/27 02:46:00;;;;;;;24.33;8.15;;;-4.00;99.90;;;;;;5041554;28;20029;-72
2021/12/27 02:48:29;;;;;;;19.27;8.13;;;-4.00;99.90;;;;;;5040747;28;20022;-71
2021/12/27 02:50:55;;;;;;;25.00;9.40;;;-4.00;99.90;;;;;;5041036;28;20551;-72
2021/12/27 02:53:22;;;;;;;20.77;8.85;;;-4.00;99.90;;;;;;5042156;28;20039;-72
2021/12/27 02:55:50;;;;;;;23.73;8.68;;;-4.00;99.90;;;;;;5041072;28;20113;-71
2021/12/27 02:58:15;;;;;;;26.00;9.98;;;-4.00;99.90;;;;;;5038883;28;20032;-71
2021/12/27 03:00:52;;;;;;;25.88;9.50;;;-4.00;99.90;;;;;;5039588;28;20421;-71
2021/12/27 03:03:18;;;;;;;26.33;9.07;;;-4.00;99.90;;;;;;5036125;28;20029;-71
2021/12/27 03:05:45;;;;;;;22.60;9.02;;;-4.00;99.90;;;;;;5040201;28;20033;-71
2021/12/27 03:08:14;;;;;;;24.40;8.80;;;-4.00;99.90;;;;;;5040627;28;20041;-71
2021/12/27 03:10:42;;;;;;;24.95;9.60;;;-4.00;99.90;;;;;;5041324;28;20484;-71
2021/12/27 03:13:13;;;;;;;28.75;10.05;;;-4.00;99.90;;;;;;5039093;28;20029;-71
2021/12/27 03:15:39;;;;;;;23.38;8.80;;;-4.00;99.90;;;;;;5040335;28;20061;-71
2021/12/27 03:18:05;;;;;;;25.92;9.10;;;-4.00;99.90;;;;;;5040784;28;20071;-71
2021/12/27 03:20:30;;;;;;;21.77;9.30;;;-4.00;99.90;;;;;;5040096;28;20075;-71
2021/12/27 03:22:56;;;;;;;20.25;9.65;;;-4.00;99.90;;;;;;5040994;28;20112;-71
2021/12/27 03:25:24;;;;;;;23.17;9.85;;;-3.90;99.90;;;;;;5040763;28;20034;-71
2021/12/27 03:27:50;;;;;;;24.70;9.48;;;-3.90;99.90;;;;;;5041622;28;20060;-71
2021/12/27 03:30:19;;;;;;;20.48;8.95;;;-3.90;99.90;;;;;;5055205;28;20038;-71
2021/12/27 03:32:45;;;;;;;22.17;9.23;;;-3.90;99.90;;;;;;5041367;28;20128;-71
2021/12/27 03:35:15;;;;;;;27.02;10.32;;;-3.90;99.90;;;;;;5040460;28;20359;-71
2021/12/27 03:37:44;;;;;;;23.40;9.40;;;-4.00;99.90;;;;;;5040587;28;20525;-72
2021/12/27 03:40:11;;;;;;;23.88;9.77;;;-4.00;99.90;;;;;;5034968;28;20052;-71
2021/12/27 03:42:38;;;;;;;21.58;8.75;;;-3.90;99.90;;;;;;5039588;28;20060;-72
2021/12/27 03:45:06;;;;;;;24.25;9.55;;;-3.90;99.90;;;;;;5039570;28;20051;-72
2021/12/27 03:47:32;;;;;;;24.08;9.43;;;-3.90;99.90;;;;;;5038647;28;20056;-71
2021/12/27 03:49:57;;;;;;;23.40;8.80;;;-3.90;99.90;;;;;;5041240;28;20060;-71
2021/12/27 03:52:23;;;;;;;21.55;8.75;;;-3.80;99.90;;;;;;5037659;28;20029;-71
2021/12/27 03:54:49;;;;;;;26.58;11.00;;;-3.80;99.90;;;;;;5040990;28;20367;-71
2021/12/27 03:57:16;;;;;;;19.45;8.52;;;-3.80;99.90;;;;;;5038208;28;20043;-71
2021/12/27 04:02:11;;;;;;;28.10;10.35;;;-3.80;99.90;;;;;;5041330;28;20052;-71
2021/12/27 04:04:38;;;;;;;22.83;9.57;;;-3.80;99.90;;;;;;5039424;28;20054;-71
2021/12/27 04:07:07;;;;;;;19.92;9.38;;;-3.80;99.90;;;;;;5038456;28;20386;-71
2021/12/27 04:09:32;;;;;;;25.27;10.88;;;-3.80;99.90;;;;;;5040100;28;20482;-71
2021/12/27 04:11:58;;;;;;;30.13;11.60;;;-3.70;99.90;;;;;;5037869;28;20025;-71
2021/12/27 04:14:25;;;;;;;23.83;9.65;;;-3.70;99.90;;;;;;5038485;28;20072;-72
2021/12/27 04:16:52;;;;;;;27.33;10.15;;;-3.80;99.90;;;;;;5038395;28;20033;-71
2021/12/27 04:19:18;;;;;;;26.85;10.00;;;-3.70;99.90;;;;;;5037154;28;20532;-72
2021/12/27 04:21:43;;;;;;;26.20;10.05;;;-3.70;99.90;;;;;;5040642;28;20037;-71
2021/12/27 04:24:09;;;;;;;25.25;11.23;;;-3.70;99.90;;;;;;5040175;28;20057;-72
2021/12/27 04:26:35;;;;;;;26.00;11.35;;;-3.70;99.90;;;;;;5037416;28;20045;-71
2021/12/27 04:29:01;;;;;;;24.90;10.30;;;-3.70;99.90;;;;;;5040570;28;20510;-71
2021/12/27 04:31:27;;;;;;;23.45;10.02;;;-3.70;99.90;;;;;;5037598;28;20032;-71
2021/12/27 04:33:52;;;;;;;25.98;10.68;;;-3.70;99.90;;;;;;5037847;28;20033;-72
2021/12/27 04:36:18;;;;;;;27.05;10.93;;;-3.60;99.90;;;;;;5042760;28;20461;-72
2021/12/27 04:38:44;;;;;;;31.40;11.40;;;-3.60;99.90;;;;;;5038174;28;20037;-71
2021/12/27 04:41:14;;;;;;;26.35;10.52;;;-3.60;99.90;;;;;;5038373;28;20036;-71
2021/12/27 04:43:40;;;;;;;26.35;11.15;;;-3.60;99.90;;;;;;5038510;28;20061;-71
2021/12/27 04:46:06;;;;;;;27.85;10.68;;;-3.60;99.90;;;;;;5038921;28;20056;-70
2021/12/27 04:48:32;;;;;;;29.20;10.90;;;-3.60;99.90;;;;;;5036097;28;20044;-71
2021/12/27 04:50:58;;;;;;;27.60;10.93;;;-3.60;99.90;;;;;;5039423;28;20041;-71
2021/12/27 04:53:24;;;;;;;27.42;11.25;;;-3.60;99.90;;;;;;5039147;28;20017;-71
2021/12/27 04:55:50;;;;;;;28.10;11.50;;;-3.60;99.90;;;;;;5039102;28;20100;-71
2021/12/27 04:58:18;;;;;;;27.73;10.60;;;-3.60;99.90;;;;;;5038258;28;20103;-71
2021/12/27 05:00:44;;;;;;;29.05;11.95;;;-3.50;99.90;;;;;;5039469;28;20491;-71
2021/12/27 05:03:10;;;;;;;30.40;10.93;;;-3.50;99.90;;;;;;5038891;28;20037;-71
2021/12/27 05:05:37;;;;;;;27.98;10.88;;;-3.50;99.90;;;;;;5035750;28;20037;-71
2021/12/27 05:08:03;;;;;;;28.70;10.50;;;-3.50;99.90;;;;;;5036709;28;20029;-71
2021/12/27 05:10:30;;;;;;;32.30;11.68;;;-3.40;99.90;;;;;;5038687;28;20036;-72
2021/12/27 05:12:56;;;;;;;31.98;11.77;;;-3.40;99.90;;;;;;5038914;28;20071;-71
2021/12/27 05:15:22;;;;;;;28.90;11.27;;;-3.40;99.90;;;;;;5036522;28;20034;-71
2021/12/27 05:17:48;;;;;;;28.63;11.23;;;-3.40;99.90;;;;;;5036647;28;20029;-71
2021/12/27 05:20:14;;;;;;;29.75;12.13;;;-3.40;99.90;;;;;;5038716;28;20037;-70
2021/12/27 05:22:40;;;;;;;25.70;10.05;;;-3.40;99.90;;;;;;5034823;28;20071;-72
2021/12/27 05:25:10;;;;;;;30.65;11.73;;;-3.30;99.90;;;;;;5037288;28;20018;-71
2021/12/27 05:27:38;;;;;;;26.50;10.52;;;-3.30;99.90;;;;;;5039338;28;20061;-71
2021/12/27 05:30:05;;;;;;;29.17;11.93;;;-3.30;99.90;;;;;;5038085;28;20039;-72
2021/12/27 05:32:31;;;;;;;30.25;12.25;;;-3.30;99.90;;;;;;5035395;28;20462;-71
2021/12/27 05:34:57;;;;;;;25.58;10.48;;;-3.30;99.90;;;;;;5037100;28;20057;-70
2021/12/27 05:37:22;;;;;;;28.30;11.65;;;-3.30;99.90;;;;;;5037960;28;20028;-71
2021/12/27 05:39:48;;;;;;;33.35;13.05;;;-3.30;99.90;;;;;;5035145;28;20458;-71
2021/12/27 05:42:14;;;;;;;25.73;12.10;;;-3.30;99.90;;;;;;5036439;28;20111;-72
2021/12/27 05:44:43;;;;;;;32.97;12.48;;;-3.30;99.90;;;;;;5037760;28;20056;-72
2021/12/27 05:47:08;;;;;;;29.45;11.23;;;-3.30;99.90;;;;;;5038602;28;20550;-71
2021/12/27 05:49:34;;;;;;;32.47;11.55;;;-3.30;99.90;;;;;;5033733;28;20021;-72
2021/12/27 05:52:00;;;;;;;33.28;11.43;;;-3.20;99.90;;;;;;5040462;28;20049;-71
2021/12/27 05:54:25;;;;;;;31.60;11.93;;;-3.20;99.90;;;;;;5037452;28;20026;-71
2021/12/27 05:56:51;;;;;;;25.65;10.57;;;-3.30;99.90;;;;;;5036621;28;20573;-71
2021/12/27 05:59:17;;;;;;;32.25;12.05;;;-3.20;99.90;;;;;;5036358;28;20044;-71
2021/12/27 06:01:44;;;;;;;27.52;11.80;;;-3.20;99.90;;;;;;5035061;28;20025;-71
2021/12/27 06:04:10;;;;;;;35.47;12.52;;;-3.20;99.90;;;;;;5037702;28;20048;-71
2021/12/27 06:06:37;;;;;;;29.00;12.07;;;-3.20;99.90;;;;;;5039584;28;20102;-71
2021/12/27 06:09:04;;;;;;;32.53;12.68;;;-3.30;99.90;;;;;;5037769;28;20144;-72
2021/12/27 06:11:30;;;;;;;32.72;12.30;;;-3.20;99.90;;;;;;5036856;28;20132;-71
2021/12/27 06:13:56;;;;;;;36.20;13.05;;;-3.30;99.90;;;;;;5040271;28;20444;-71
2021/12/27 06:16:22;;;;;;;30.15;11.32;;;-3.30;99.90;;;;;;5040002;28;20033;-71
2021/12/27 06:18:48;;;;;;;31.17;13.38;;;-3.20;99.90;;;;;;5040534;28;20032;-71
2021/12/27 06:21:13;;;;;;;32.17;13.18;;;-3.30;99.90;;;;;;5041378;28;20412;-72
2021/12/27 06:23:39;;;;;;;32.33;12.85;;;-3.30;99.90;;;;;;5043796;28;20568;-71
2021/12/27 06:26:05;;;;;;;26.52;11.48;;;-3.30;99.90;;;;;;5039529;28;20672;-72
2021/12/27 06:28:31;;;;;;;37.35;12.80;;;-3.40;99.90;;;;;;5041451;28;20399;-71
2021/12/27 06:30:58;;;;;;;38.10;13.40;;;-3.40;99.90;;;;;;5041564;28;20021;-71
2021/12/27 06:33:24;;;;;;;30.58;13.02;;;-3.40;99.90;;;;;;5042756;28;20072;-71
2021/12/27 06:35:49;;;;;;;31.25;12.80;;;-3.40;99.90;;;;;;5040018;28;20029;-71
2021/12/27 06:38:15;;;;;;;33.20;12.88;;;-3.40;99.90;;;;;;5042852;28;20021;-71
2021/12/27 06:40:41;;;;;;;33.33;12.57;;;-3.40;99.90;;;;;;5039511;28;20036;-71
2021/12/27 06:43:07;;;;;;;26.85;11.63;;;-3.40;99.90;;;;;;5040796;28;20059;-71
2021/12/27 06:45:32;;;;;;;28.67;12.27;;;-3.40;99.90;;;;;;5042881;28;20104;-71
2021/12/27 06:47:58;;;;;;;35.00;13.40;;;-3.40;99.90;;;;;;5038593;28;20029;-71
2021/12/27 06:50:24;;;;;;;28.15;12.35;;;-3.30;99.90;;;;;;5043714;28;20033;-71
2021/12/27 06:52:50;;;;;;;31.08;13.57;;;-3.30;99.90;;;;;;5041926;28;20120;-71
2021/12/27 06:55:16;;;;;;;29.50;12.82;;;-3.30;99.90;;;;;;5041968;28;20103;-71
2021/12/27 06:57:42;;;;;;;33.63;11.73;;;-3.20;99.90;;;;;;5041561;28;20030;-71
2021/12/27 07:00:11;;;;;;;29.00;12.35;;;-3.20;99.90;;;;;;5040416;28;20029;-72
2021/12/27 07:02:37;;;;;;;30.77;12.80;;;-3.10;99.90;;;;;;5037374;28;20033;-71
2021/12/27 07:05:04;;;;;;;34.10;12.75;;;-3.10;99.90;;;;;;5042218;28;20021;-71
2021/12/27 07:07:30;;;;;;;30.75;12.85;;;-3.10;99.90;;;;;;5042945;28;20022;-71
2021/12/27 07:09:55;;;;;;;32.40;13.60;;;-3.20;99.90;;;;;;5043733;28;20032;-71
2021/12/27 07:12:21;;;;;;;29.55;13.23;;;-3.10;99.90;;;;;;5044545;28;20029;-71
2021/12/27 07:14:48;;;;;;;34.67;13.32;;;-3.20;99.90;;;;;;5037950;28;20129;-71
2021/12/27 07:17:15;;;;;;;33.15;13.43;;;-3.10;99.90;;;;;;5040831;28;20030;-71
2021/12/27 07:19:41;;;;;;;27.48;11.50;;;-3.10;99.90;;;;;;5040067;28;20045;-72
2021/12/27 07:22:07;;;;;;;28.30;13.25;;;-3.10;99.90;;;;;;5040596;28;20076;-74
2021/12/27 07:24:33;;;;;;;35.65;14.18;;;-3.10;99.90;;;;;;5037279;28;20384;-73
2021/12/27 07:26:59;;;;;;;29.23;12.38;;;-3.10;99.90;;;;;;5041919;28;20029;-70
2021/12/27 07:29:25;;;;;;;34.15;12.70;;;-3.10;99.90;;;;;;5042657;28;20029;-71
2021/12/27 07:31:51;;;;;;;36.35;13.57;;;-3.00;99.90;;;;;;5037705;28;20427;-71
2021/12/27 07:34:19;;;;;;;31.13;13.73;;;-3.00;99.90;;;;;;5042792;28;20084;-72
2021/12/27 07:36:47;;;;;;;34.70;13.63;;;-3.00;99.90;;;;;;5040643;28;20392;-71
2021/12/27 07:39:12;;;;;;;36.67;15.35;;;-3.00;99.90;;;;;;5044052;28;20315;-71
2021/12/27 07:41:39;;;;;;;29.27;13.82;;;-3.00;99.90;;;;;;5034851;28;20060;-71
2021/12/27 07:44:06;;;;;;;34.13;13.98;;;-3.00;99.90;;;;;;5039736;28;20056;-71
2021/12/27 07:46:32;;;;;;;29.98;13.02;;;-3.00;99.90;;;;;;5038947;28;20017;-71
2021/12/27 07:48:57;;;;;;;31.30;13.05;;;-3.00;99.90;;;;;;5037821;28;20104;-70
2021/12/27 07:51:23;;;;;;;32.17;14.38;;;-3.10;99.90;;;;;;5041347;28;20021;-71
2021/12/27 07:53:49;;;;;;;36.00;14.48;;;-3.10;99.90;;;;;;5040381;28;20032;-71
2021/12/27 07:56:14;;;;;;;39.67;14.02;;;-3.10;99.90;;;;;;5040218;28;20083;-71
2021/12/27 07:58:40;;;;;;;36.63;13.25;;;-3.10;99.90;;;;;;5038579;28;20079;-72
2021/12/27 08:01:06;;;;;;;36.95;13.98;;;-3.10;99.90;;;;;;5041272;28;20368;-72
2021/12/27 08:03:32;;;;;;;33.40;14.50;;;-3.10;99.90;;;;;;5039489;28;20033;-70
2021/12/27 08:05:58;;;;;;;32.72;14.38;;;-3.00;99.90;;;;;;5039911;28;20521;-71
2021/12/27 08:08:24;;;;;;;34.70;14.35;;;-3.00;99.90;;;;;;5037832;28;20079;-71
2021/12/27 08:10:49;;;;;;;36.00;13.82;;;-3.00;99.90;;;;;;5041861;28;20021;-71
2021/12/27 08:13:15;;;;;;;36.35;16.10;;;-3.00;99.90;;;;;;5038768;28;20580;-71
2021/12/27 08:15:41;;;;;;;33.67;14.25;;;-3.00;99.90;;;;;;5041656;28;20031;-71
2021/12/27 08:18:06;;;;;;;34.95;14.20;;;-3.00;99.90;;;;;;5039431;28;20029;-71
2021/12/27 08:20:32;;;;;;;36.00;15.82;;;-2.90;99.90;;;;;;5036971;28;20056;-71
2021/12/27 08:22:58;;;;;;;38.70;16.25;;;-2.90;99.90;;;;;;5040482;28;20029;-71
2021/12/27 08:25:23;;;;;;;36.03;14.65;;;-2.90;99.90;;;;;;5038475;28;20475;-71
2021/12/27 08:27:50;;;;;;;37.03;14.90;;;-2.80;99.90;;;;;;5038544;28;20487;-72
2021/12/27 08:30:16;;;;;;;35.97;14.77;;;-2.80;99.90;;;;;;5042831;28;20032;-71
2021/12/27 08:32:45;;;;;;;34.65;15.10;;;-2.80;99.90;;;;;;5040126;28;20124;-72
2021/12/27 08:35:14;;;;;;;39.35;17.58;;;-2.70;99.90;;;;;;5038643;28;20033;-72
2021/12/27 08:37:42;;;;;;;34.47;13.88;;;-2.70;99.90;;;;;;5040285;28;20032;-72
2021/12/27 08:40:09;;;;;;;40.22;17.17;;;-2.80;99.90;;;;;;5038091;28;20038;-70
2021/12/27 08:42:35;;;;;;;40.78;15.82;;;-2.70;99.90;;;;;;5038271;28;20542;-71
2021/12/27 08:45:03;;;;;;;37.58;15.57;;;-2.70;99.90;;;;;;5035526;28;20107;-71
2021/12/27 08:47:29;;;;;;;36.90;14.85;;;-2.70;99.90;;;;;;5037406;28;20021;-72
2021/12/27 08:49:55;;;;;;;33.75;16.00;;;-2.70;99.90;;;;;;5036191;28;20119;-71
2021/12/27 08:52:21;;;;;;;42.40;16.73;;;-2.70;99.90;;;;;;5040311;28;20090;-71
2021/12/27 08:54:47;;;;;;;37.17;15.52;;;-2.70;99.90;;;;;;5040700;28;20040;-71
2021/12/27 08:57:12;;;;;;;36.63;15.73;;;-2.60;99.90;;;;;;5035392;28;20056;-71
2021/12/27 08:59:38;;;;;;;39.55;14.90;;;-2.60;99.90;;;;;;5037294;28;20029;-71
2021/12/27 09:02:05;;;;;;;39.75;15.43;;;-2.60;99.90;;;;;;5034373;28;20045;-71
2021/12/27 09:04:32;;;;;;;34.83;16.25;;;-2.60;99.90;;;;;;5039435;28;20486;-71
2021/12/27 09:06:58;;;;;;;34.17;14.95;;;-2.50;99.90;;;;;;5037160;28;20026;-71
2021/12/27 09:09:24;;;;;;;40.83;15.77;;;-2.50;99.90;;;;;;5039557;28;20108;-72
2021/12/27 09:11:50;;;;;;;37.08;16.05;;;-2.50;99.90;;;;;;5036830;28;20121;-71
2021/12/27 09:14:15;;;;;;;36.28;15.32;;;-2.50;99.90;;;;;;5037617;28;20075;-71
2021/12/27 09:16:42;;;;;;;42.22;16.38;;;-2.40;99.90;;;;;;5037836;28;20027;-71
2021/12/27 09:19:10;;;;;;;38.63;15.60;;;-2.40;99.90;;;;;;5038087;28;20033;-71
2021/12/27 09:21:36;;;;;;;40.00;15.25;;;-2.40;99.90;;;;;;5039863;28;20106;-71
2021/12/27 09:24:05;;;;;;;39.65;16.73;;;-2.40;99.90;;;;;;5038168;28;20491;-71
2021/12/27 09:26:31;;;;;;;41.70;16.15;;;-2.30;99.90;;;;;;5034231;28;20025;-71
2021/12/27 09:28:57;;;;;;;40.20;17.65;;;-2.30;99.90;;;;;;5036411;28;20532;-72
2021/12/27 09:31:24;;;;;;;46.72;18.80;;;-2.30;99.90;;;;;;5037803;28;20024;-71
2021/12/27 09:33:50;;;;;;;37.63;16.02;;;-2.30;99.90;;;;;;5039909;28;20029;-71
2021/12/27 09:36:15;;;;;;;39.00;16.30;;;-2.30;99.90;;;;;;5038123;28;20094;-71
2021/12/27 09:38:41;;;;;;;39.35;16.58;;;-2.30;99.90;;;;;;5037224;28;20542;-72
2021/12/27 09:41:07;;;;;;;37.67;16.33;;;-2.20;99.90;;;;;;5040784;28;20524;-73
2021/12/27 09:43:34;;;;;;;44.95;16.67;;;-2.20;99.90;;;;;;5038170;28;20026;-71
2021/12/27 09:46:00;;;;;;;39.90;16.38;;;-2.10;99.90;;;;;;5036701;28;20033;-71
2021/12/27 09:48:25;;;;;;;40.33;15.57;;;-2.10;99.90;;;;;;5038982;28;20462;-72
2021/12/27 09:50:55;;;;;;;38.42;16.70;;;-2.10;99.90;;;;;;5040666;28;20502;-72
2021/12/27 09:53:21;;;;;;;38.33;15.82;;;-2.10;99.90;;;;;;5043330;28;20070;-71
2021/12/27 09:55:46;;;;;;;40.58;15.20;;;-2.10;99.90;;;;;;5040904;28;20035;-71
2021/12/27 09:58:12;;;;;;;37.38;17.88;;;-2.10;99.90;;;;;;5040479;28;20017;-71
2021/12/27 10:00:42;;;;;;;43.65;18.00;;;-2.10;99.90;;;;;;5044776;28;20394;-72
2021/12/27 10:03:09;;;;;;;40.88;17.02;;;-2.10;99.90;;;;;;5040306;28;20026;-71
2021/12/27 10:05:36;;;;;;;38.50;16.23;;;-2.10;99.90;;;;;;5041232;28;20029;-71
2021/12/27 10:08:02;;;;;;;39.08;15.57;;;-2.00;99.90;;;;;;5039402;28;20256;-71
2021/12/27 10:10:33;;;;;;;39.58;18.13;;;-2.00;99.90;;;;;;5040443;28;20025;-72
2021/12/27 10:13:00;;;;;;;42.55;18.40;;;-2.00;99.90;;;;;;5042948;28;20083;-71
2021/12/27 10:15:39;;;;;;;38.05;16.60;;;-2.00;99.90;;;;;;5040978;28;20040;-72
2021/12/27 10:18:14;;;;;;;42.17;17.38;;;-2.00;99.90;;;;;;5044169;28;20037;-71
2021/12/27 10:20:41;;;;;;;38.92;16.85;;;-2.00;99.90;;;;;;5040428;28;20437;-71
2021/12/27 10:23:07;;;;;;;39.75;17.02;;;-2.00;99.90;;;;;;5037255;28;20057;-71
2021/12/27 10:25:33;;;;;;;38.38;16.85;;;-2.00;99.90;;;;;;5044577;28;20025;-72
2021/12/27 10:28:02;;;;;;;41.15;16.75;;;-2.00;99.90;;;;;;5039155;28;20035;-72
2021/12/27 10:30:30;;;;;;;39.42;17.77;;;-2.00;99.90;;;;;;5041642;28;20044;-71
2021/12/27 10:33:07;;;;;;;44.90;18.90;;;-2.00;99.90;;;;;;5056638;28;20401;-71
2021/12/27 10:35:34;;;;;;;37.65;16.63;;;-2.00;99.90;;;;;;5041926;28;20021;-71
2021/12/27 10:38:21;;;;;;;41.95;18.02;;;-2.00;99.90;;;;;;5038377;28;20049;-71
2021/12/27 10:41:00;;;;;;;39.13;17.33;;;-1.90;99.90;;;;;;5038220;28;20036;-72
2021/12/27 10:43:56;;;;;;;43.65;18.27;;;-1.90;99.90;;;;;;5042683;28;20022;-71
2021/12/27 10:46:22;;;;;;;42.20;19.67;;;-1.90;99.90;;;;;;5039893;28;20030;-71
2021/12/27 10:48:58;;;;;;;44.05;18.45;;;-1.90;99.90;;;;;;5042614;28;20033;-71
2021/12/27 10:51:28;;;;;;;43.05;18.23;;;-1.80;99.90;;;;;;5042037;28;20086;-72
2021/12/27 10:54:00;;;;;;;40.42;17.58;;;-1.80;99.90;;;;;;5040359;28;20063;-71
2021/12/27 10:56:28;;;;;;;44.38;18.77;;;-1.80;99.90;;;;;;5042129;28;20056;-72
2021/12/27 10:58:55;;;;;;;42.28;17.70;;;-1.80;99.90;;;;;;5039299;28;20387;-71
2021/12/27 11:01:24;;;;;;;40.60;18.55;;;-1.80;99.90;;;;;;5039505;28;20033;-73
2021/12/27 11:03:52;;;;;;;42.28;18.25;;;-1.70;99.90;;;;;;5043284;28;20496;-73
2021/12/27 11:06:24;;;;;;;40.47;17.98;;;-1.70;99.90;;;;;;5040850;28;20021;-71
2021/12/27 11:08:52;;;;;;;45.05;19.70;;;-1.70;99.90;;;;;;5039516;28;20526;-72
2021/12/27 11:11:19;;;;;;;41.47;18.25;;;-1.70;99.90;;;;;;5038569;28;20033;-72
2021/12/27 11:13:47;;;;;;;44.00;18.65;;;-1.70;99.90;;;;;;5040623;28;20053;-72
2021/12/27 11:16:13;;;;;;;41.85;17.75;;;-1.60;99.90;;;;;;5022745;28;20078;-72
2021/12/27 11:18:39;;;;;;;47.45;19.83;;;-1.60;99.90;;;;;;5045014;28;20025;-72
2021/12/27 11:21:14;;;;;;;46.03;19.92;;;-1.60;99.90;;;;;;5040276;28;20508;-72
2021/12/27 11:23:41;;;;;;;46.08;19.35;;;-1.50;99.90;;;;;;5038203;28;20029;-72
2021/12/27 11:26:10;;;;;;;42.28;19.63;;;-1.50;99.90;;;;;;5039421;28;20040;-71
2021/12/27 11:28:38;;;;;;;46.63;18.83;;;-1.50;99.90;;;;;;5039738;28;20225;-72
2021/12/27 11:31:24;;;;;;;39.40;17.35;;;-1.50;99.90;;;;;;5041293;28;20380;-72
2021/12/27 11:34:01;;;;;;;42.85;17.83;;;-1.40;99.90;;;;;;5040057;28;20029;-72
2021/12/27 11:36:39;;;;;;;42.85;17.35;;;-1.40;99.90;;;;;;5039385;28;20429;-72
2021/12/27 11:39:25;;;;;;;45.63;18.90;;;-1.40;99.90;;;;;;5040647;28;20029;-72
2021/12/27 11:42:08;;;;;;;40.88;17.52;;;-1.40;99.90;;;;;;5040882;28;20402;-72
2021/12/27 11:44:37;;;;;;;41.47;18.83;;;-1.40;99.90;;;;;;5042192;28;20025;-73
2021/12/27 11:47:07;;;;;;;48.88;19.83;;;-1.40;99.90;;;;;;5040253;28;20099;-73
2021/12/27 11:49:45;;;;;;;46.72;19.73;;;-1.40;99.90;;;;;;5039980;28;20063;-72
2021/12/27 11:52:27;;;;;;;46.35;20.45;;;-1.40;99.90;;;;;;5045660;28;20116;-73
2021/12/27 11:55:02;;;;;;;47.95;19.85;;;-1.40;99.90;;;;;;5036890;28;20116;-72
2021/12/27 11:57:53;;;;;;;44.88;18.98;;;-1.40;99.90;;;;;;5036136;28;20126;-72
2021/12/27 12:00:26;;;;;;;45.05;18.90;;;-1.40;99.90;;;;;;5045099;28;20466;-71
2021/12/27 12:03:02;;;;;;;48.03;19.98;;;-1.40;99.90;;;;;;5040169;28;20410;-72
2021/12/27 12:05:47;;;;;;;45.85;19.20;;;-1.40;99.90;;;;;;5037255;28;20021;-72
2021/12/27 12:08:26;;;;;;;45.60;20.23;;;-1.30;99.90;;;;;;5037596;28;20053;-73
2021/12/27 12:11:13;;;;;;;48.00;20.20;;;-1.30;99.90;;;;;;5041357;28;20032;-72
2021/12/27 12:13:47;;;;;;;46.63;19.33;;;-1.30;99.90;;;;;;5038792;28;20040;-72
2021/12/27 12:16:22;;;;;;;44.72;19.63;;;-1.30;99.90;;;;;;5040310;28;20056;-71
2021/12/27 12:18:51;;;;;;;42.55;18.17;;;-1.30;99.90;;;;;;5038771;28;20014;-71
2021/12/27 12:21:37;;;;;;;42.30;19.08;;;-1.30;99.90;;;;;;5038175;28;20080;-71
2021/12/27 12:24:12;;;;;;;48.38;19.75;;;-1.20;99.90;;;;;;5039033;28;20091;-71
2021/12/27 12:26:48;;;;;;;45.15;19.85;;;-1.20;99.90;;;;;;5037472;28;20036;-72
2021/12/27 12:29:14;;;;;;;46.47;19.85;;;-1.20;99.90;;;;;;5038634;28;20026;-72
2021/12/27 12:31:40;;;;;;;41.78;18.65;;;-1.20;99.90;;;;;;5040772;28;20483;-72
2021/12/27 12:34:14;;;;;;;45.95;21.10;;;-1.20;99.90;;;;;;5038656;28;20029;-72
2021/12/27 12:36:52;;;;;;;51.63;21.15;;;-1.10;99.90;;;;;;5040645;28;20029;-71
2021/12/27 12:39:20;;;;;;;45.90;19.77;;;-1.10;99.90;;;;;;5037204;28;20040;-72